^^
Datos históricos de la estación: Murcia-Puente Tocinos
Diario Informe para Abril 11, 2019 Unidades:  Ingés    Métrico   Ambas
Diario Semanal Mensual Anual
  Máxima: Mínima: Promedio:
Temperatura: 93.6 °F 72.1 °F 81.7 °F
Punto de rocio: 68.5 °F 55 °F 61.3 °F
Humedad: 79% 29% 54%
Velocidad viento: 11.2mph 0mph 4.8mph
Racha viento: 18.4mph - -
Viento- - ESE
Presión: 29.9 in 29.9 in -
Precipitación: 0 in    
 
 
Tabla de datos para Abril 11, 2019
Hora Temperatura Punto de rocio Presión Viento Velocidad viento Racha viento Humedad Intensidad lluvia(por hora) Nubes
00:04 76.6 °F 68.2 °F 29.9 in NNE 3.1 mph 5.8 mph 75% 0 in
00:09 76.5 °F 67.8 °F 29.9 in NE 3.1 mph 5.8 mph 75% 0 in
00:14 76.5 °F 68.4 °F 29.9 in ENE 3.1 mph 5.8 mph 76% 0 in
00:19 76.3 °F 68.2 °F 29.9 in North 3.6 mph 4.6 mph 76% 0 in
00:24 76.3 °F 68.2 °F 29.9 in Este 3.6 mph 4.6 mph 76% 0 in
00:29 76.3 °F 68.2 °F 29.9 in NE 2 mph 4.6 mph 76% 0 in
00:34 76.3 °F 68.2 °F 29.9 in Este 2 mph 3.5 mph 76% 0 in
00:39 76.3 °F 68.2 °F 29.9 in Este 2 mph 3.5 mph 76% 0 in
00:44 76.3 °F 68.5 °F 29.9 in ESE 2 mph 3.5 mph 77% 0 in
00:49 76.1 °F 68.4 °F 29.9 in ESE 2 mph 2.3 mph 77% 0 in
00:54 76.1 °F 68 °F 29.9 in ESE 2 mph 2.4 mph 76% 0 in
00:59 75.9 °F 67.8 °F 29.9 in NNO 1.8 mph 2.3 mph 76% 0 in
01:04 75.9 °F 67.8 °F 29.9 in NNO 1.8 mph 4.6 mph 76% 0 in
01:09 75.9 °F 68.2 °F 29.9 in NNO 2 mph 3.5 mph 77% 0 in
01:14 75.9 °F 68.2 °F 29.9 in NNO 2 mph   77% 0 in
01:19 75.7 °F 68 °F 29.9 in NO 1.4 mph 2.3 mph 77% 0 in
01:24 75.7 °F 68 °F 29.9 in ONO 1.4 mph 3.5 mph 77% 0 in
01:29 75.6 °F 68.2 °F 29.9 in ONO 2 mph 3.1 mph 78% 0 in
01:34 75.6 °F 68.2 °F 29.9 in ONO 2 mph 2.3 mph 78% 0 in
01:39 75.6 °F 68.2 °F 29.9 in ONO 1.4 mph 2.3 mph 78% 0 in
01:44 75.6 °F 68.2 °F 29.9 in NO 1.4 mph 3.1 mph 78% 0 in
01:49 75.6 °F 68.2 °F 29.9 in NNO 1.4 mph 3.5 mph 78% 0 in
01:54 75.6 °F 68.2 °F 29.9 in North 1.4 mph 3.5 mph 78% 0 in
01:59 75.6 °F 68.2 °F 29.9 in North 2 mph 2.3 mph 78% 0 in
02:04 75.6 °F 68.5 °F 29.9 in NNE 2 mph 2.3 mph 79% 0 in
02:09 75.4 °F 68.4 °F 29.9 in NNE 1.4 mph   79% 0 in
02:14 75.4 °F 67.6 °F 29.9 in Este 1.4 mph 4.6 mph 77% 0 in
02:19 75 °F 66.9 °F 29.9 in ESE 2 mph 3.5 mph 76% 0 in
02:24 74.8 °F 66.7 °F 29.9 in ESE 2 mph   76% 0 in
02:29 74.8 °F 66.7 °F 29.9 in Calm     76% 0 in
02:34 74.7 °F 66.2 °F 29.9 in Calm   4.6 mph 75% 0 in
02:39 74.7 °F 66.2 °F 29.9 in SE 2 mph 2.3 mph 75% 0 in
02:44 74.7 °F 66.2 °F 29.9 in SE 2 mph   75% 0 in
02:49 74.5 °F 66 °F 29.9 in Calm     75% 0 in
02:54 74.5 °F 66.4 °F 29.9 in Calm     76% 0 in
02:59 74.5 °F 66.4 °F 29.9 in Calm     76% 0 in
03:04 74.5 °F 66.4 °F 29.9 in Calm     76% 0 in
03:09 74.5 °F 66.4 °F 29.9 in Calm     76% 0 in
03:14 74.5 °F 65.7 °F 29.9 in Calm     74% 0 in
03:19 74.3 °F 65.5 °F 29.9 in Calm   2.3 mph 74% 0 in
03:24 74.1 °F 64.9 °F 29.9 in Calm   3.5 mph 73% 0 in
03:29 74.1 °F 64.9 °F 29.9 in ESE 1.4 mph 2.4 mph 73% 0 in
03:34 74.1 °F 64.9 °F 29.9 in ESE 1.4 mph 3.5 mph 73% 0 in
03:39 74.1 °F 64.6 °F 29.9 in ESE 2 mph 3.1 mph 72% 0 in
03:44 73.9 °F 64.2 °F 29.9 in ESE 2 mph   72% 0 in
03:49 73.9 °F 64.2 °F 29.9 in ESE 1.4 mph   72% 0 in
03:54 73.9 °F 64.2 °F 29.9 in ESE 1.4 mph 2.4 mph 72% 0 in
03:59 73.9 °F 63.9 °F 29.9 in ESE 1.8 mph 3.5 mph 71% 0 in
04:04 73.9 °F 63.9 °F 29.9 in ESE 1.8 mph 2.9 mph 71% 0 in
04:09 73.9 °F 63.9 °F 29.9 in ESE 1.4 mph 1.2 mph 71% 0 in
04:14 73.9 °F 63.5 °F 29.9 in ESE 1.4 mph   70% 0 in
04:19 73.9 °F 63.5 °F 29.9 in Calm     70% 0 in
04:24 73.8 °F 63.9 °F 29.9 in Calm     71% 0 in
04:29 73.8 °F 65.3 °F 29.9 in Calm     75% 0 in
04:34 73.8 °F 64.9 °F 29.9 in Calm     74% 0 in
04:39 73.6 °F 64.8 °F 29.9 in Calm     74% 0 in
04:44 73.2 °F 64.4 °F 29.9 in Calm     74% 0 in
04:49 73.2 °F 65.1 °F 29.9 in Calm     76% 0 in
04:54 73.2 °F 65.7 °F 29.9 in Calm     77% 0 in
04:59 73 °F 64.6 °F 29.9 in Calm     75% 0 in
05:04 72.9 °F 63.3 °F 29.9 in Calm   2.4 mph 72% 0 in
05:09 72.9 °F 63 °F 29.9 in SE 1.8 mph 3.5 mph 71% 0 in
05:14 72.9 °F 63.3 °F 29.9 in SE 1.8 mph 2.4 mph 72% 0 in
05:19 73 °F 63.1 °F 29.9 in SE 2 mph 1.2 mph 71% 0 in
05:24 73 °F 63.9 °F 29.9 in ENE 2 mph 2.3 mph 73% 0 in
05:29 73 °F 64.6 °F 29.9 in Este 1.4 mph   75% 0 in
05:34 73 °F 64.9 °F 29.9 in Este 1.4 mph   76% 0 in
05:39 73 °F 64.9 °F 29.9 in Calm   1.2 mph 76% 0 in
05:44 73 °F 64.9 °F 29.9 in Calm   2.3 mph 76% 0 in
05:49 72.9 °F 63.7 °F 29.9 in Calm   3.5 mph 73% 0 in
05:54 72.9 °F 63.7 °F 29.9 in Calm   2.3 mph 73% 0 in
05:59 72.9 °F 63.7 °F 29.9 in Sur 2 mph 3.5 mph 73% 0 in
06:04 72.9 °F 63.7 °F 29.9 in SSO 2 mph 2.3 mph 73% 0 in
06:09 72.9 °F 63.7 °F 29.9 in SSO 1.8 mph 2.9 mph 73% 0 in
06:14 72.9 °F 63.3 °F 29.9 in SO 1.8 mph 3.5 mph 72% 0 in
06:19 72.9 °F 63.7 °F 29.9 in SSO 2.9 mph 4.6 mph 73% 0 in
06:24 72.9 °F 63.7 °F 29.9 in SSO 2.9 mph 2.3 mph 73% 0 in
06:29 72.9 °F 63.7 °F 29.9 in Sur 2.4 mph 2.4 mph 73% 0 in
06:34 72.9 °F 63.3 °F 29.9 in Sur 2.4 mph 5.8 mph 72% 0 in
06:39 72.7 °F 63.1 °F 29.9 in SO 2.9 mph 3.5 mph 72% 0 in
06:44 72.7 °F 63.1 °F 29.9 in SO 2.9 mph 2.3 mph 72% 0 in
06:49 72.5 °F 63 °F 29.9 in Sur 1.8 mph 4.6 mph 72% 0 in
06:54 72.5 °F 63 °F 29.9 in SSO 1.8 mph 5.8 mph 72% 0 in
06:59 72.3 °F 62.8 °F 29.9 in SSO 3.6 mph 5.8 mph 72% 0 in
07:04 72.3 °F 62.8 °F 29.9 in SO 3.6 mph 2.3 mph 72% 0 in
07:09 72.3 °F 62.8 °F 29.9 in SO 2.9 mph 4.6 mph 72% 0 in
07:14 72.3 °F 62.8 °F 29.9 in OSO 2.9 mph 4.6 mph 72% 0 in
07:19 72.1 °F 62.6 °F 29.9 in SO 3.6 mph 4.6 mph 72% 0 in
07:24 72.3 °F 62.8 °F 29.9 in OSO 3.6 mph 4.6 mph 72% 0 in
07:29 72.3 °F 62.4 °F 29.9 in SO 3.1 mph 5.8 mph 71% 0 in
07:34 72.3 °F 62.4 °F 29.9 in OSO 3.1 mph 4.6 mph 71% 0 in
07:39 72.5 °F 62.2 °F 29.9 in SSO 3.1 mph 5.8 mph 70% 0 in
07:44 72.5 °F 62.2 °F 29.9 in Sur 3.1 mph 4.6 mph 70% 0 in
07:49 72.7 °F 62.2 °F 29.9 in SSO 3.1 mph 4.7 mph 70% 0 in
07:54 72.7 °F 61.9 °F 29.9 in SSO 3.1 mph 5.8 mph 69% 0 in
07:59 72.9 °F 62.1 °F 29.9 in Sur 4 mph 5.8 mph 69% 0 in
08:04 72.9 °F 62.1 °F 29.9 in Sur 4 mph 5.8 mph 69% 0 in
08:09 73 °F 62.2 °F 29.9 in Sur 4.3 mph 5.8 mph 69% 0 in
08:14 73 °F 62.2 °F 29.9 in SSO 4.3 mph 6.9 mph 69% 0 in
08:19 73.2 °F 62.4 °F 29.9 in SSO 4.7 mph 5.8 mph 69% 0 in
08:24 73.4 °F 62.2 °F 29.9 in SSE 4.7 mph 6.9 mph 68% 0 in
08:29 73.8 °F 62.4 °F 29.9 in OSO 4.3 mph 6.4 mph 68% 0 in
08:34 73.9 °F 62.8 °F 29.9 in OSO 4.3 mph 5.9 mph 68% 0 in
08:39 74.1 °F 62.4 °F 29.9 in SSO 4.3 mph 6.9 mph 67% 0 in
08:44 74.5 °F 62.8 °F 29.9 in Sur 4.3 mph 5.8 mph 67% 0 in
08:49 74.5 °F 62.4 °F 29.9 in SO 4.3 mph 5.8 mph 66% 0 in
08:54 74.7 °F 62.4 °F 29.9 in SSO 4.3 mph 8.1 mph 66% 0 in
08:59 74.7 °F 62.4 °F 29.9 in SSO 4.3 mph 5.8 mph 66% 0 in
09:04 74.8 °F 62.2 °F 29.9 in SSO 4.3 mph 5.8 mph 65% 0 in
09:09 75 °F 62.4 °F 29.9 in SSO 4 mph 5.8 mph 65% 0 in
09:14 75.2 °F 62.2 °F 29.9 in SSO 4 mph 4.7 mph 64% 0 in
09:19 75.6 °F 62.1 °F 29.9 in SO 4 mph 6.9 mph 63% 0 in
09:24 75.9 °F 62.1 °F 29.9 in SSO 4 mph 5.8 mph 62% 0 in
09:29 75.9 °F 62.1 °F 29.9 in Sur 4.3 mph 6.9 mph 62% 0 in
09:34 76.1 °F 61.7 °F 29.9 in SSO 4.3 mph 6.9 mph 61% 0 in
09:39 76.5 °F 62.1 °F 29.9 in SSO 4.7 mph 5.9 mph 61% 0 in
09:44 76.5 °F 62.1 °F 29.9 in Oeste 4.7 mph 6.9 mph 61% 0 in
09:49 76.8 °F 61.9 °F 29.9 in SSO 4.3 mph 5.8 mph 60% 0 in
09:54 77.4 °F 61.9 °F 29.9 in SO 4.3 mph 6.9 mph 59% 0 in
09:59 77.7 °F 62.2 °F 29.9 in Sur 4.7 mph 4.7 mph 59% 0 in
10:04 77.7 °F 62.2 °F 29.9 in SO 4.7 mph 6.9 mph 59% 0 in
10:09 78.1 °F 62.6 °F 29.9 in SSO 4.7 mph 6.9 mph 59% 0 in
10:14 78.4 °F 62.4 °F 29.9 in OSO 4.7 mph 5.8 mph 58% 0 in
10:19 78.8 °F 62.2 °F 29.9 in SSE 4 mph 5.2 mph 57% 0 in
10:24 79.2 °F 62.1 °F 29.9 in OSO 4 mph 5.4 mph 56% 0 in
10:29 79.7 °F 62.1 °F 29.9 in ONO 3.6 mph 5.8 mph 55% 0 in
10:34 80.2 °F 61.5 °F 29.9 in Oeste 3.6 mph 4.6 mph 53% 0 in
10:39 80.4 °F 61.7 °F 29.9 in OSO 3.1 mph 4.7 mph 53% 0 in
10:44 80.8 °F 61.5 °F 29.9 in OSO 3.1 mph 5.2 mph 52% 0 in
10:49 81 °F 61.2 °F 29.9 in NO 3.6 mph 4.6 mph 51% 0 in
10:54 81.3 °F 61.5 °F 29.9 in Oeste 3.6 mph 4.6 mph 51% 0 in
10:59 81.9 °F 61.3 °F 29.9 in ESE 2.4 mph 3.5 mph 50% 0 in
11:04 82.8 °F 61.2 °F 29.9 in ESE 2.4 mph 2.3 mph 48% 0 in
11:09 83.7 °F 61.3 °F 29.9 in SSO 2 mph 2.3 mph 47% 0 in
11:14 84 °F 61 °F 29.9 in SSO 2 mph 4.6 mph 46% 0 in
11:19 84.4 °F 61.3 °F 29.9 in SE 2.9 mph 5.8 mph 46% 0 in
11:24 84.6 °F 61 °F 29.9 in SE 2.9 mph 6.9 mph 45% 0 in
11:29 84.6 °F 61 °F 29.9 in SE 3.6 mph 4.7 mph 45% 0 in
11:34 84.7 °F 60.4 °F 29.9 in Sur 3.6 mph 4.6 mph 44% 0 in
11:39 85.1 °F 58.8 °F 29.9 in SSE 3.6 mph 6.9 mph 41% 0 in
11:44 85.5 °F 59.2 °F 29.9 in SO 3.6 mph 4.6 mph 41% 0 in
11:49 85.8 °F 58.6 °F 29.9 in SE 3.1 mph 4.6 mph 40% 0 in
11:54 86.5 °F 58.6 °F 29.9 in ENE 3.1 mph 4.6 mph 39% 0 in
11:59 87.1 °F 59.2 °F 29.9 in NNE 2 mph 2.3 mph 39% 0 in
12:04 87.6 °F 57.4 °F 29.9 in Este 2 mph 8.1 mph 36% 0 in
12:09 87.4 °F 56.5 °F 29.9 in ESE 3.6 mph 8.1 mph 35% 0 in
12:14 87.6 °F 56.7 °F 29.9 in SE 3.6 mph 6.9 mph 35% 0 in
12:19 87.8 °F 56.7 °F 29.9 in NE 3.6 mph 4.6 mph 35% 0 in
12:24 88.2 °F 57 °F 29.9 in NE 3.6 mph 8.1 mph 35% 0 in
12:29 88 °F 57.7 °F 29.9 in North 4.3 mph 6.9 mph 36% 0 in
12:34 88 °F 57.7 °F 29.9 in NNO 4.3 mph 3.5 mph 36% 0 in
12:39 88.5 °F 57.4 °F 29.9 in ENE 2.9 mph 9.2 mph 35% 0 in
12:44 88.5 °F 56.7 °F 29.9 in NNE 2.9 mph 6.9 mph 34% 0 in
12:49 88.5 °F 56.7 °F 29.9 in North 5.4 mph 6.9 mph 34% 0 in
12:54 88.7 °F 56.7 °F 29.9 in NNE 5.4 mph 6.9 mph 34% 0 in
12:59 89.1 °F 56.1 °F 29.9 in ENE 5.2 mph 8.1 mph 33% 0 in
13:04 89.2 °F 55.6 °F 29.9 in NE 5.2 mph 6.2 mph 32% 0 in
13:09 89.4 °F 56.5 °F 29.9 in NE 4 mph 5.8 mph 33% 0 in
13:14 89.8 °F 55 °F 29.9 in ONO 4 mph 4.6 mph 31% 0 in
13:19 90.1 °F 55.4 °F 29.9 in Este 3.6 mph 6.9 mph 31% 0 in
13:24 90.7 °F 56.8 °F 29.9 in NNO 3.6 mph 6.9 mph 32% 0 in
13:29 90.9 °F 56.8 °F 29.9 in NNO 3.6 mph 4.6 mph 32% 0 in
13:34 91.2 °F 57.2 °F 29.9 in NNE 3.6 mph 8.1 mph 32% 0 in
13:39 91.2 °F 57.2 °F 29.9 in ENE 4.3 mph 10.4 mph 32% 0 in
13:44 91.2 °F 57.2 °F 29.9 in NE 4.3 mph 8.1 mph 32% 0 in
13:49 91.2 °F 57.2 °F 29.9 in NNE 5.4 mph 5.8 mph 32% 0 in
13:54 91.6 °F 57.6 °F 29.9 in NNO 5.4 mph 8.1 mph 32% 0 in
13:59 91.8 °F 56.8 °F 29.9 in North 5.9 mph 10.4 mph 31% 0 in
14:04 92.1 °F 55.2 °F 29.9 in NO 5.9 mph 6.9 mph 29% 0 in
14:09 92.7 °F 56.7 °F 29.9 in NE 5.4 mph 8.1 mph 30% 0 in
14:14 93 °F 57 °F 29.9 in NNE 5.4 mph 9.2 mph 30% 0 in
14:19 93 °F 57 °F 29.9 in NE 7.6 mph 12.7 mph 30% 0 in
14:24 92.8 °F 56.8 °F 29.9 in ENE 7.6 mph 11.5 mph 30% 0 in
14:29 93 °F 57 °F 29.9 in NNE 7.4 mph 10.4 mph 30% 0 in
14:34 93.4 °F 58.3 °F 29.9 in NE 7.4 mph 11.5 mph 31% 0 in
14:39 93 °F 57 °F 29.9 in NNE 8.7 mph 13.8 mph 30% 0 in
14:44 92.8 °F 58.6 °F 29.9 in ENE 8.7 mph 11.8 mph 32% 0 in
14:49 92.8 °F 58.6 °F 29.9 in NNE 8.7 mph 16.3 mph 32% 0 in
14:54 93 °F 58.8 °F 29.9 in Este 8.7 mph 15 mph 32% 0 in
14:59 93.4 °F 59.2 °F 29.9 in NE 9.7 mph 12.7 mph 32% 0 in
15:04 93.4 °F 60.1 °F 29.9 in ESE 9.7 mph 17.3 mph 33% 0 in
15:09 93.4 °F 60.1 °F 29.9 in ENE 8.7 mph 16.1 mph 33% 0 in
15:14 93.6 °F 60.1 °F 29.9 in Este 8.7 mph 18.4 mph 33% 0 in
15:19 93 °F 59.7 °F 29.9 in Este 9.2 mph 16.1 mph 33% 0 in
15:24 92.7 °F 59.4 °F 29.9 in NE 9.2 mph 13.8 mph 33% 0 in
15:29 93 °F 59.7 °F 29.9 in ENE 10 mph 9.2 mph 33% 0 in
15:34 92.8 °F 59.5 °F 29.9 in NE 10 mph 15 mph 33% 0 in
15:39 92.8 °F 58.6 °F 29.9 in NE 8.5 mph 13.8 mph 32% 0 in
15:44 92.8 °F 58.6 °F 29.9 in NE 8.5 mph 11.5 mph 32% 0 in
15:49 93 °F 58.8 °F 29.9 in NNE 8.7 mph 12.7 mph 32% 0 in
15:54 93 °F 58.8 °F 29.9 in NNE 8.7 mph 10.4 mph 32% 0 in
15:59 92.7 °F 58.5 °F 29.9 in Este 8.7 mph 11.5 mph 32% 0 in
16:04 92.8 °F 57.7 °F 29.9 in Este 8.7 mph 10.4 mph 31% 0 in
16:09 92.8 °F 58.6 °F 29.9 in ENE 7.4 mph 11.5 mph 32% 0 in
16:14 92.8 °F 57.7 °F 29.9 in ENE 7.4 mph 10.4 mph 31% 0 in
16:19 92.8 °F 58.6 °F 29.9 in ESE 6.9 mph 17.3 mph 32% 0 in
16:24 93.2 °F 59 °F 29.9 in NE 6.9 mph 11.5 mph 32% 0 in
16:26 93.2 °F 59 °F 29.9 in ENE 6.9 mph 14 mph 32% 0 in
17:05 93.2 °F 58.8 °F 29.9 in Este 7 mph 10 mph 32% 0 in
17:14 93 °F 57 °F 29.9 in NE 7.2 mph 17 mph 30% 0 in
17:19 92.5 °F 56.5 °F 29.9 in Este 9.2 mph 15 mph 30% 0 in
17:24 92.7 °F 56.7 °F 29.9 in NE 9.2 mph 14 mph 30% 0 in
17:29 92.1 °F 56.1 °F 29.9 in NE 8.5 mph 15 mph 30% 0 in
17:34 92.5 °F 57.4 °F 29.9 in NE 8.5 mph 10.4 mph 31% 0 in
17:39 92.7 °F 56.7 °F 29.9 in NE 8.7 mph 11.5 mph 30% 0 in
17:44 92.7 °F 57.6 °F 29.9 in NE 8.7 mph 15 mph 31% 0 in
17:49 92.5 °F 57.4 °F 29.9 in North 8.7 mph 15 mph 31% 0 in
17:54 92.1 °F 57 °F 29.9 in ENE 8.7 mph 12.7 mph 31% 0 in
17:59 92.5 °F 58.3 °F 29.9 in ENE 9.2 mph 15 mph 32% 0 in
18:04 92.5 °F 57.4 °F 29.9 in ENE 9.2 mph 12.7 mph 31% 0 in
18:09 92.1 °F 57 °F 29.9 in North 8.1 mph 14.5 mph 31% 0 in
18:14 91.8 °F 56.8 °F 29.9 in NE 8.1 mph 12.7 mph 31% 0 in
18:19 91.6 °F 57.6 °F 29.9 in NE 10.2 mph 13.8 mph 32% 0 in
18:24 91.8 °F 58.6 °F 29.9 in NE 10.2 mph 11.5 mph 33% 0 in
18:29 91.9 °F 57.9 °F 29.9 in NE 8.1 mph 15 mph 32% 0 in
18:34 91.6 °F 57.6 °F 29.9 in NNE 8.1 mph 16.1 mph 32% 0 in
18:39 91 °F 58.8 °F 29.9 in NNE 10.2 mph 11.5 mph 34% 0 in
18:44 91.4 °F 59.2 °F 29.9 in NE 10.2 mph 11.4 mph 34% 0 in
18:49 91.2 °F 58.8 °F 29.9 in NE 8.1 mph 10.4 mph 34% 0 in
18:54 90.9 °F 59.4 °F 29.9 in NE 8.1 mph 13.8 mph 35% 0 in
18:59 90.5 °F 59.2 °F 29.9 in NNE 9.7 mph 17.3 mph 35% 0 in
19:04 90.3 °F 59 °F 29.9 in ENE 9.7 mph 17.3 mph 35% 0 in
19:09 90.1 °F 58.8 °F 29.9 in NNE 10 mph 11.5 mph 35% 0 in
19:14 89.8 °F 58.5 °F 29.9 in NNE 10 mph 16.1 mph 35% 0 in
19:19 89.4 °F 58.3 °F 29.9 in ENE 10.2 mph 13.8 mph 35% 0 in
19:24 89.4 °F 59 °F 29.9 in NE 10.2 mph 13.8 mph 36% 0 in
19:29 89.4 °F 59 °F 29.9 in NE 10.2 mph 15 mph 36% 0 in
19:34 89.1 °F 59.4 °F 29.9 in North 10.2 mph 17.3 mph 37% 0 in
19:39 88.7 °F 59.7 °F 29.9 in Este 10.7 mph 11.5 mph 38% 0 in
19:44 88.5 °F 59.7 °F 29.9 in NE 10.7 mph 15 mph 38% 0 in
19:49 88 °F 59.9 °F 29.9 in ENE 10 mph 17.3 mph 39% 0 in
19:54 87.8 °F 59.7 °F 29.9 in NE 10 mph 16.1 mph 39% 0 in
19:59 87.6 °F 60.3 °F 29.9 in NE 10 mph 12.7 mph 40% 0 in
20:04 87.1 °F 60.4 °F 29.9 in NE 10 mph 15 mph 41% 0 in
20:09 86.5 °F 60.1 °F 29.9 in NE 10 mph 15 mph 41% 0 in
20:14 86.2 °F 60.4 °F 29.9 in NE 10 mph 16.1 mph 42% 0 in
20:19 85.8 °F 60.1 °F 29.9 in NNE 11.2 mph 12.7 mph 42% 0 in
20:24 85.8 °F 60.1 °F 29.9 in NE 11.2 mph 10.7 mph 42% 0 in
20:29 85.6 °F 59.2 °F 29.9 in NE 9.2 mph 13.8 mph 41% 0 in
20:34 85.5 °F 59.2 °F 29.9 in ENE 9.2 mph 11.8 mph 41% 0 in
20:39 85.1 °F 58.8 °F 29.9 in NE 8.7 mph 13.5 mph 41% 0 in
20:44 84.9 °F 58.6 °F 29.9 in NE 8.7 mph 10.4 mph 41% 0 in
20:49 84.6 °F 58.3 °F 29.9 in NE 8.5 mph 11.5 mph 41% 0 in
20:54 84.4 °F 58.8 °F 29.9 in NNE 8.5 mph 12.7 mph 42% 0 in
20:59 84 °F 58.5 °F 29.9 in NNE 8.5 mph 11.5 mph 42% 0 in
21:04 83.8 °F 58.3 °F 29.9 in NE 8.5 mph 11.5 mph 42% 0 in
21:09 83.5 °F 58.6 °F 29.9 in NNE 7.6 mph 12.7 mph 43% 0 in
21:14 83.1 °F 58.8 °F 29.9 in ENE 7.6 mph 12.7 mph 44% 0 in
21:19 82.9 °F 59.4 °F 29.9 in NNE 7.6 mph 12.3 mph 45% 0 in
21:24 82.8 °F 59.4 °F 29.9 in NE 7.6 mph 12.7 mph 45% 0 in
21:29 82.4 °F 58.8 °F 29.9 in NNE 7.6 mph 12.7 mph 45% 0 in
21:34 82.2 °F 58.8 °F 29.9 in NNE 7.6 mph 10.4 mph 45% 0 in
21:39 82 °F 57.9 °F 29.9 in NE 6.9 mph 9.2 mph 44% 0 in
21:44 82 °F 57.9 °F 29.9 in ENE 6.9 mph 10.4 mph 44% 0 in
21:49 81.9 °F 58.5 °F 29.9 in NNE 6.2 mph 8.1 mph 45% 0 in
21:54 81.7 °F 58.8 °F 29.9 in NE 6.2 mph 10.4 mph 46% 0 in
21:59 81.3 °F 58.6 °F 29.9 in NNE 6.2 mph 9.2 mph 46% 0 in
22:04 81.1 °F 58.5 °F 29.9 in NE 6.2 mph 11.5 mph 46% 0 in
22:09 81.1 °F 58.5 °F 29.9 in NNE 6.9 mph 6.9 mph 46% 0 in
22:14 81.1 °F 58.5 °F 29.9 in NE 6.9 mph 8.1 mph 46% 0 in
22:19 81 °F 58.8 °F 29.9 in NNE 6.4 mph 6.9 mph 47% 0 in
22:24 81 °F 58.8 °F 29.9 in NE 6.4 mph 6.9 mph 47% 0 in
22:29 80.6 °F 59.2 °F 29.9 in NNE 5.2 mph 5.8 mph 48% 0 in
22:34 80.2 °F 59.4 °F 29.9 in NE 5.2 mph 8.1 mph 49% 0 in
22:39 80.1 °F 59.7 °F 29.9 in NE 5.4 mph 6.9 mph 50% 0 in
22:44 79.9 °F 60.1 °F 29.9 in NE 5.4 mph 6.9 mph 51% 0 in
22:49 79.5 °F 60.4 °F 29.9 in NE 5.2 mph 6.9 mph 52% 0 in
22:54 79.3 °F 60.3 °F 29.9 in NE 5.2 mph 8.1 mph 52% 0 in
22:59 79.2 °F 60.6 °F 29.9 in NE 5.2 mph 6.9 mph 53% 0 in
23:04 79.2 °F 60.6 °F 29.9 in NE 5.2 mph 8.1 mph 53% 0 in
23:09 79.2 °F 60.6 °F 29.9 in NE 5.2 mph 4.7 mph 53% 0 in
23:14 79.2 °F 60.6 °F 29.9 in North 5.2 mph 4.6 mph 53% 0 in
23:19 79.2 °F 61.2 °F 29.9 in NE 4 mph 5.8 mph 54% 0 in
23:24 79.2 °F 61.5 °F 29.9 in ENE 4 mph 5.4 mph 55% 0 in
23:29 79 °F 61.3 °F 29.9 in NE 3.6 mph 5.8 mph 55% 0 in
23:34 78.6 °F 62.1 °F 29.9 in NE 3.6 mph 6.9 mph 57% 0 in
23:39 78.4 °F 62.4 °F 29.9 in NE 5.2 mph 8.1 mph 58% 0 in
23:44 78.3 °F 62.2 °F 29.9 in NE 5.2 mph 6.9 mph 58% 0 in
23:49 78.1 °F 62.1 °F 29.9 in NE 5.9 mph 8.1 mph 58% 0 in
23:54 78.1 °F 62.6 °F 29.9 in ENE 5.9 mph 8.1 mph 59% 0 in
23:59 77.9 °F 62.4 °F 29.9 in NNE 5.9 mph 9.2 mph 59% 0 in
Murcia-Puente Tocinos, España
Compliments of Weather Underground - 3.5 mb

La estación de MeteoMurcia.com, publica sus datos en los siguientes proyectos:

Weather Underground PWS IMURCIAP2 Meteoclimatic www.awekas.at

W3Counter
Web Analytics